Time;durP1;ratioP1;P1;durP2;ratioP2;P2;SDS_P1;SDS_P2;PMS_P1;PMS_P2;Temp;Humidity;BMP_temperature;BMP_pressure;BME280_temperature;BME280_humidity;BME280_pressure;Samples;Min_cycle;Max_cycle;Signal;HPM_P1;HPM_P2
2022/09/13 00:01:43;;;;;;;11.15;6.38;;;20.00;99.90;;;;;;4957299;28;20039;-57
2022/09/13 00:04:10;;;;;;;11.20;6.30;;;20.00;99.90;;;;;;4956648;28;20039;-56
2022/09/13 00:06:37;;;;;;;9.60;5.32;;;20.00;99.90;;;;;;4939571;28;20055;-57
2022/09/13 00:09:04;;;;;;;12.20;6.03;;;19.90;99.90;;;;;;4937357;29;20048;-55
2022/09/13 00:11:30;;;;;;;9.90;5.03;;;19.90;99.90;;;;;;4942623;29;20526;-57
2022/09/13 00:13:57;;;;;;;7.07;4.80;;;19.90;99.90;;;;;;4956392;28;20115;-57
2022/09/13 00:16:24;;;;;;;10.80;5.50;;;19.90;99.90;;;;;;4956307;28;20047;-57
2022/09/13 00:18:51;;;;;;;7.00;4.60;;;19.90;99.90;;;;;;4955897;28;20134;-57
2022/09/13 00:21:17;;;;;;;8.18;4.90;;;19.90;99.90;;;;;;4956571;28;20055;-57
2022/09/13 00:23:44;;;;;;;9.60;4.30;;;19.90;99.90;;;;;;4956337;28;20043;-57
2022/09/13 00:26:11;;;;;;;6.03;3.72;;;19.90;99.90;;;;;;4956673;28;20035;-58
2022/09/13 00:28:37;;;;;;;7.88;4.00;;;19.80;99.90;;;;;;4954950;28;20038;-57
2022/09/13 00:31:04;;;;;;;6.30;3.90;;;19.80;99.90;;;;;;4956769;28;20051;-57
2022/09/13 00:33:31;;;;;;;10.88;3.97;;;19.80;99.90;;;;;;4951428;28;20048;-58
2022/09/13 00:35:58;;;;;;;6.60;3.72;;;19.70;99.90;;;;;;4937407;29;20047;-59
2022/09/13 00:38:24;;;;;;;6.38;3.78;;;19.70;99.90;;;;;;4937213;29;20552;-57
2022/09/13 00:40:51;;;;;;;5.95;3.70;;;19.70;99.90;;;;;;4945417;29;20043;-53
2022/09/13 00:43:18;;;;;;;7.10;3.85;;;19.60;99.90;;;;;;4955371;28;20102;-57
2022/09/13 00:45:45;;;;;;;9.43;4.40;;;19.60;99.90;;;;;;4956099;28;20050;-57
2022/09/13 00:48:11;;;;;;;9.05;4.47;;;19.50;99.90;;;;;;4955232;28;20102;-57
2022/09/13 00:50:38;;;;;;;10.05;4.03;;;19.50;99.90;;;;;;4955965;29;20423;-53
2022/09/13 00:53:05;;;;;;;9.35;3.92;;;19.50;99.90;;;;;;4944108;28;20395;-58
2022/09/13 00:55:32;;;;;;;8.93;3.70;;;19.50;99.90;;;;;;4956237;29;20043;-58
2022/09/13 00:57:58;;;;;;;9.75;4.07;;;19.50;99.90;;;;;;4956265;28;20047;-59
2022/09/13 01:00:25;;;;;;;10.07;4.40;;;19.40;99.90;;;;;;4953796;28;20047;-58
2022/09/13 01:02:52;;;;;;;8.52;3.88;;;19.40;99.90;;;;;;4954610;28;20047;-59
2022/09/13 01:05:19;;;;;;;7.10;3.83;;;19.40;99.90;;;;;;4954619;29;20415;-56
2022/09/13 01:07:45;;;;;;;8.70;4.10;;;19.40;99.90;;;;;;4955698;28;20074;-58
2022/09/13 01:10:12;;;;;;;6.90;4.30;;;19.30;99.90;;;;;;4956015;28;20085;-57
2022/09/13 01:12:39;;;;;;;7.20;4.30;;;19.30;99.90;;;;;;4955949;29;20047;-57
2022/09/13 01:15:06;;;;;;;7.97;4.18;;;19.30;99.90;;;;;;4955426;28;20134;-58
2022/09/13 01:17:32;;;;;;;8.13;4.20;;;19.20;99.90;;;;;;4955479;28;20078;-58
2022/09/13 01:19:59;;;;;;;9.25;3.95;;;19.20;99.90;;;;;;4955200;29;20042;-58
2022/09/13 01:22:26;;;;;;;5.57;3.65;;;19.20;99.90;;;;;;4955864;28;20479;-58
2022/09/13 01:24:52;;;;;;;7.18;3.90;;;19.10;99.90;;;;;;4955902;28;20482;-58
2022/09/13 01:27:19;;;;;;;7.90;4.25;;;19.10;99.90;;;;;;4955840;28;20039;-57
2022/09/13 01:29:46;;;;;;;8.80;4.32;;;19.10;99.90;;;;;;4936585;28;20043;-57
2022/09/13 01:32:12;;;;;;;9.15;4.70;;;19.00;99.90;;;;;;4935945;29;20527;-58
2022/09/13 01:34:39;;;;;;;7.10;4.05;;;19.00;99.90;;;;;;4950915;28;20129;-58
2022/09/13 01:37:06;;;;;;;7.15;4.22;;;19.00;99.90;;;;;;4955046;29;20079;-58
2022/09/13 01:39:32;;;;;;;9.85;4.00;;;18.90;99.90;;;;;;4954089;28;20415;-60
2022/09/13 01:42:00;;;;;;;6.88;4.20;;;18.90;99.90;;;;;;4955159;28;20043;-58
2022/09/13 01:44:27;;;;;;;8.10;4.07;;;18.90;99.90;;;;;;4955104;28;20122;-58
2022/09/13 01:46:54;;;;;;;8.55;4.20;;;18.90;99.90;;;;;;4954366;29;20035;-58
2022/09/13 01:49:20;;;;;;;9.32;4.00;;;18.90;99.90;;;;;;4954727;28;20043;-58
2022/09/13 01:51:47;;;;;;;8.45;4.50;;;18.90;99.90;;;;;;4955168;29;20087;-57
2022/09/13 01:54:14;;;;;;;7.03;3.90;;;18.90;99.90;;;;;;4954883;28;20114;-57
2022/09/13 01:56:41;;;;;;;5.82;4.07;;;18.80;99.90;;;;;;4955500;28;20134;-57
2022/09/13 01:59:07;;;;;;;9.52;4.68;;;18.90;99.90;;;;;;4955129;28;20047;-58
2022/09/13 02:01:34;;;;;;;7.10;4.25;;;18.80;99.90;;;;;;4955591;28;20047;-58
2022/09/13 02:04:04;;;;;;;7.63;4.40;;;18.90;99.90;;;;;;4936826;28;20048;-58
2022/09/13 02:06:30;;;;;;;6.13;3.63;;;18.80;99.90;;;;;;4951653;28;20067;-58
2022/09/13 02:08:57;;;;;;;6.80;3.67;;;18.80;99.90;;;;;;4953768;29;20131;-57
2022/09/13 02:11:24;;;;;;;6.38;3.70;;;18.80;99.90;;;;;;4954383;28;20055;-58
2022/09/13 02:13:50;;;;;;;9.45;3.90;;;18.80;99.90;;;;;;4940604;28;20480;-58
2022/09/13 02:16:17;;;;;;;8.13;3.65;;;18.80;99.90;;;;;;4935689;29;20048;-58
2022/09/13 02:18:44;;;;;;;9.20;3.88;;;18.80;99.90;;;;;;4954662;29;20483;-58
2022/09/13 02:21:11;;;;;;;10.13;4.07;;;18.80;99.90;;;;;;4953963;28;20040;-57
2022/09/13 02:23:37;;;;;;;6.53;3.95;;;18.70;99.90;;;;;;4954677;28;20054;-58
2022/09/13 02:26:04;;;;;;;8.35;3.97;;;18.70;99.90;;;;;;4953457;29;20035;-58
2022/09/13 02:28:31;;;;;;;9.02;4.18;;;18.70;99.90;;;;;;4953346;29;20035;-57
2022/09/13 02:30:57;;;;;;;8.40;3.83;;;18.70;99.90;;;;;;4955152;28;20059;-57
2022/09/13 02:33:24;;;;;;;6.15;3.85;;;18.70;99.90;;;;;;4946543;28;20457;-58
2022/09/13 02:35:51;;;;;;;8.32;4.20;;;18.70;99.90;;;;;;4953593;28;20040;-58
2022/09/13 02:38:17;;;;;;;6.63;4.03;;;18.70;99.90;;;;;;4954142;28;20058;-58
2022/09/13 02:40:45;;;;;;;8.00;4.38;;;18.70;99.90;;;;;;4953814;28;20039;-58
2022/09/13 02:43:11;;;;;;;5.40;3.90;;;18.70;99.90;;;;;;4956737;28;20035;-59
2022/09/13 02:45:38;;;;;;;9.60;4.28;;;18.70;99.90;;;;;;4957105;28;20047;-58
2022/09/13 02:48:05;;;;;;;6.88;4.20;;;18.80;99.90;;;;;;4957861;28;20039;-58
2022/09/13 02:50:31;;;;;;;8.95;4.10;;;18.80;99.90;;;;;;4958539;28;20115;-58
2022/09/13 02:52:58;;;;;;;5.95;3.65;;;18.80;99.90;;;;;;4956046;29;20053;-58
2022/09/13 02:55:25;;;;;;;9.18;4.07;;;18.80;99.90;;;;;;4957224;28;20039;-58
2022/09/13 02:57:51;;;;;;;7.30;4.00;;;18.90;99.90;;;;;;4956963;29;20045;-58
2022/09/13 03:00:18;;;;;;;7.05;3.58;;;18.90;99.90;;;;;;4957147;28;20455;-56
2022/09/13 03:02:45;;;;;;;9.32;4.05;;;18.90;99.90;;;;;;4956269;29;20118;-58
2022/09/13 03:05:12;;;;;;;6.93;4.65;;;19.00;99.90;;;;;;4957581;28;20050;-56
2022/09/13 03:07:38;;;;;;;7.57;4.70;;;18.90;99.90;;;;;;4956944;28;20047;-58
2022/09/13 03:10:05;;;;;;;9.98;5.05;;;18.90;99.90;;;;;;4956983;28;20043;-54
2022/09/13 03:12:32;;;;;;;10.07;5.90;;;18.90;99.90;;;;;;4957195;29;20043;-58
2022/09/13 03:14:58;;;;;;;7.63;4.90;;;18.90;99.90;;;;;;4956988;28;20059;-58
2022/09/13 03:17:25;;;;;;;10.75;5.40;;;18.90;99.90;;;;;;4957088;29;20043;-56
2022/09/13 03:19:52;;;;;;;11.38;5.93;;;18.90;99.90;;;;;;4956731;28;20047;-56
2022/09/13 03:22:19;;;;;;;10.60;6.05;;;18.90;99.90;;;;;;4956871;28;20114;-58
2022/09/13 03:24:46;;;;;;;10.05;6.10;;;18.90;99.90;;;;;;4957559;28;20074;-57
2022/09/13 03:27:13;;;;;;;7.78;5.53;;;18.90;99.90;;;;;;4957534;29;20126;-57
2022/09/13 03:29:40;;;;;;;9.85;6.20;;;19.00;99.90;;;;;;4955199;28;20518;-58
2022/09/13 03:32:06;;;;;;;10.05;6.50;;;19.00;99.90;;;;;;4951604;29;20406;-57
2022/09/13 03:34:33;;;;;;;11.98;7.60;;;19.00;99.90;;;;;;4955800;28;20147;-56
2022/09/13 03:37:00;;;;;;;7.97;6.65;;;19.00;99.90;;;;;;4957180;29;20047;-57
2022/09/13 03:39:27;;;;;;;8.98;6.85;;;19.00;99.90;;;;;;4956455;28;20044;-57
2022/09/13 03:41:55;;;;;;;7.60;6.10;;;19.00;99.90;;;;;;4956841;28;20636;-57
2022/09/13 03:44:22;;;;;;;9.55;6.88;;;19.00;99.90;;;;;;4956381;28;20039;-59
2022/09/13 03:46:48;;;;;;;7.43;6.57;;;19.00;99.90;;;;;;4957661;28;20039;-57
2022/09/13 03:49:15;;;;;;;8.80;6.40;;;19.00;99.90;;;;;;4954192;28;20054;-57
2022/09/13 03:51:42;;;;;;;8.50;6.47;;;19.00;99.90;;;;;;4957006;29;20049;-58
2022/09/13 03:54:08;;;;;;;8.43;6.60;;;19.00;99.90;;;;;;4955115;28;20051;-58
2022/09/13 03:56:35;;;;;;;8.63;6.93;;;18.90;99.90;;;;;;4957341;28;20039;-56
2022/09/13 03:59:02;;;;;;;10.13;6.40;;;19.00;99.90;;;;;;4956466;28;20051;-58
2022/09/13 04:01:29;;;;;;;8.93;6.57;;;18.90;99.90;;;;;;4956515;29;20043;-57
2022/09/13 04:03:56;;;;;;;7.93;6.53;;;18.90;99.90;;;;;;4954173;29;20039;-58
2022/09/13 04:06:23;;;;;;;7.93;5.75;;;19.00;99.90;;;;;;4956741;28;20490;-57
2022/09/13 04:08:50;;;;;;;7.97;6.55;;;19.00;99.90;;;;;;4956022;28;20043;-56
2022/09/13 04:11:17;;;;;;;8.48;6.45;;;19.00;99.90;;;;;;4956675;28;20054;-58
2022/09/13 04:13:43;;;;;;;8.88;6.07;;;18.90;99.90;;;;;;4955632;28;20078;-57
2022/09/13 04:16:10;;;;;;;8.02;6.13;;;19.00;99.90;;;;;;4956296;28;20491;-59
2022/09/13 04:18:37;;;;;;;7.57;6.13;;;19.00;99.90;;;;;;4955651;28;20058;-59
2022/09/13 04:21:04;;;;;;;8.70;6.20;;;19.00;99.90;;;;;;4956250;28;20062;-58
2022/09/13 04:23:31;;;;;;;9.05;6.18;;;19.00;99.90;;;;;;4956589;28;20043;-57
2022/09/13 04:25:57;;;;;;;7.72;6.07;;;18.90;99.90;;;;;;4955786;28;20052;-58
2022/09/13 04:28:24;;;;;;;6.43;5.78;;;18.90;99.90;;;;;;4954354;28;20059;-57
2022/09/13 04:30:51;;;;;;;8.65;5.88;;;19.00;99.90;;;;;;4956844;28;20421;-59
2022/09/13 04:33:17;;;;;;;6.63;5.70;;;19.00;99.90;;;;;;4954860;28;20039;-57
2022/09/13 04:35:44;;;;;;;8.18;5.85;;;18.90;99.90;;;;;;4956463;28;20043;-57
2022/09/13 04:38:11;;;;;;;5.75;5.15;;;18.90;99.90;;;;;;4955622;28;20113;-60
2022/09/13 04:40:38;;;;;;;6.10;5.50;;;18.90;99.90;;;;;;4956701;28;20039;-58
2022/09/13 04:43:05;;;;;;;6.07;5.25;;;18.90;99.90;;;;;;4955723;28;20047;-57
2022/09/13 04:45:31;;;;;;;7.10;5.57;;;18.90;99.90;;;;;;4956204;28;20464;-58
2022/09/13 04:47:58;;;;;;;6.00;4.90;;;18.80;99.90;;;;;;4954707;29;20499;-57
2022/09/13 04:50:25;;;;;;;5.80;4.88;;;18.90;99.90;;;;;;4955169;28;20233;-57
2022/09/13 04:52:52;;;;;;;5.65;5.05;;;18.90;99.90;;;;;;4955957;28;20056;-57
2022/09/13 04:55:19;;;;;;;5.40;4.75;;;18.80;99.90;;;;;;4956277;28;20125;-58
2022/09/13 04:57:45;;;;;;;5.68;5.07;;;18.90;99.90;;;;;;4954867;28;20164;-58
2022/09/13 05:00:12;;;;;;;5.63;4.90;;;18.90;99.90;;;;;;4955891;28;20054;-57
2022/09/13 05:02:39;;;;;;;7.40;5.00;;;18.90;99.90;;;;;;4953797;28;20039;-58
2022/09/13 05:05:06;;;;;;;7.38;5.00;;;18.90;99.90;;;;;;4955821;28;20402;-58
2022/09/13 05:07:34;;;;;;;6.18;4.95;;;18.80;99.90;;;;;;4955528;28;20055;-57
2022/09/13 05:10:00;;;;;;;6.82;5.03;;;18.80;99.90;;;;;;4954076;28;20075;-58
2022/09/13 05:12:27;;;;;;;6.82;4.90;;;18.80;99.90;;;;;;4956009;28;20517;-58
2022/09/13 05:14:54;;;;;;;6.35;4.97;;;18.80;99.90;;;;;;4954890;28;20039;-57
2022/09/13 05:17:21;;;;;;;5.55;4.63;;;18.80;99.90;;;;;;4954380;28;20043;-56
2022/09/13 05:19:48;;;;;;;6.57;5.85;;;18.70;99.90;;;;;;4955202;29;20083;-57
2022/09/13 05:22:15;;;;;;;6.38;5.47;;;18.70;99.90;;;;;;4955382;29;20043;-58
2022/09/13 05:24:41;;;;;;;6.60;5.30;;;18.70;99.90;;;;;;4953501;28;20118;-57
2022/09/13 05:27:08;;;;;;;6.32;5.13;;;18.60;99.90;;;;;;4954709;28;20039;-56
2022/09/13 05:29:35;;;;;;;7.10;5.10;;;18.60;99.90;;;;;;4953529;28;20047;-55
2022/09/13 05:32:02;;;;;;;7.85;4.63;;;18.60;99.90;;;;;;4954379;28;20091;-57
2022/09/13 05:34:29;;;;;;;6.10;5.18;;;18.60;99.90;;;;;;4954872;28;20490;-58
2022/09/13 05:36:56;;;;;;;6.05;5.30;;;18.60;99.90;;;;;;4954654;29;20113;-56
2022/09/13 05:39:22;;;;;;;7.47;4.97;;;18.60;99.90;;;;;;4954209;28;20047;-56
2022/09/13 05:42:09;;;;;;;5.68;5.07;;;18.60;99.90;;;;;;4952884;28;20043;-58
2022/09/13 05:44:36;;;;;;;7.15;4.78;;;18.60;99.90;;;;;;4954593;28;20122;-57
2022/09/13 05:47:02;;;;;;;6.95;4.93;;;18.60;99.90;;;;;;4954710;28;20043;-58
2022/09/13 05:49:29;;;;;;;6.00;4.75;;;18.60;99.90;;;;;;4954282;28;20110;-58
2022/09/13 05:51:56;;;;;;;7.18;4.85;;;18.60;99.90;;;;;;4954453;28;20070;-58
2022/09/13 05:54:22;;;;;;;5.10;4.60;;;18.60;99.90;;;;;;4954133;28;20126;-58
2022/09/13 05:56:51;;;;;;;5.22;4.60;;;18.60;99.90;;;;;;4953869;28;20048;-57
2022/09/13 05:59:18;;;;;;;9.77;4.82;;;18.70;99.90;;;;;;4954326;28;20146;-57
2022/09/13 06:01:44;;;;;;;5.35;4.63;;;18.70;99.90;;;;;;4953882;29;20047;-57
2022/09/13 06:04:11;;;;;;;6.43;5.20;;;18.60;99.90;;;;;;4952649;29;20095;-57
2022/09/13 06:06:38;;;;;;;6.88;5.15;;;18.60;99.90;;;;;;4955551;29;20376;-55
2022/09/13 06:09:07;;;;;;;8.35;5.97;;;18.60;99.90;;;;;;4954383;28;20067;-58
2022/09/13 06:11:34;;;;;;;8.00;6.70;;;18.60;99.90;;;;;;4954150;28;20126;-58
2022/09/13 06:14:00;;;;;;;8.90;6.97;;;18.50;99.90;;;;;;4952837;28;20147;-57
2022/09/13 06:16:27;;;;;;;7.50;6.28;;;18.50;99.90;;;;;;4952564;28;20093;-57
2022/09/13 06:18:54;;;;;;;6.88;5.90;;;18.50;99.90;;;;;;4958125;29;20074;-59
2022/09/13 06:21:21;;;;;;;7.20;6.50;;;18.50;99.90;;;;;;4957507;28;20482;-57
2022/09/13 06:23:53;;;;;;;9.18;6.32;;;18.50;99.90;;;;;;4956496;28;20045;-58
2022/09/13 06:26:20;;;;;;;8.90;6.13;;;18.50;99.90;;;;;;4956352;28;20475;-56
2022/09/13 06:28:47;;;;;;;7.68;5.90;;;18.60;99.90;;;;;;4956902;29;20035;-58
2022/09/13 06:31:14;;;;;;;8.57;6.97;;;18.60;99.90;;;;;;4958576;28;20074;-58
2022/09/13 06:33:41;;;;;;;8.95;6.97;;;18.60;99.90;;;;;;4958434;29;20059;-58
2022/09/13 06:36:08;;;;;;;7.72;7.03;;;18.60;99.90;;;;;;4955622;29;20123;-58
2022/09/13 06:38:34;;;;;;;8.73;7.28;;;18.50;99.90;;;;;;4957236;28;20498;-58
2022/09/13 06:41:01;;;;;;;9.30;6.90;;;18.50;99.90;;;;;;4957294;28;20394;-58
2022/09/13 06:43:28;;;;;;;8.05;6.90;;;18.50;99.90;;;;;;4954582;28;20058;-58
2022/09/13 06:45:55;;;;;;;8.45;7.22;;;18.50;99.90;;;;;;4956214;28;20102;-58
2022/09/13 06:48:22;;;;;;;9.32;7.43;;;18.50;99.90;;;;;;4957392;28;20483;-55
2022/09/13 06:50:48;;;;;;;7.50;6.72;;;18.60;99.90;;;;;;4957588;28;20043;-55
2022/09/13 06:53:15;;;;;;;9.20;7.05;;;18.60;99.90;;;;;;4956616;28;20475;-57
2022/09/13 06:55:42;;;;;;;10.30;7.20;;;18.70;99.90;;;;;;4956050;28;20360;-56
2022/09/13 06:58:09;;;;;;;8.30;6.65;;;18.60;99.90;;;;;;4955881;29;20062;-56
2022/09/13 07:00:35;;;;;;;7.45;6.07;;;18.60;99.90;;;;;;4957023;29;20494;-57
2022/09/13 07:03:02;;;;;;;10.00;6.18;;;18.50;99.90;;;;;;4956335;28;20547;-56
2022/09/13 07:05:29;;;;;;;7.40;5.50;;;18.50;99.90;;;;;;4956381;28;20050;-57
2022/09/13 07:07:56;;;;;;;10.30;6.15;;;18.40;99.90;;;;;;4954489;28;20110;-54
2022/09/13 07:10:22;;;;;;;12.27;5.80;;;18.40;99.90;;;;;;4957011;28;20126;-57
2022/09/13 07:12:49;;;;;;;9.30;6.03;;;18.40;99.90;;;;;;4954851;28;20039;-56
2022/09/13 07:15:16;;;;;;;9.27;6.50;;;18.40;99.90;;;;;;4955149;28;20039;-55
2022/09/13 07:17:42;;;;;;;9.25;7.25;;;18.40;99.90;;;;;;4957550;28;20391;-57
2022/09/13 07:20:09;;;;;;;11.70;6.60;;;18.40;99.90;;;;;;4956842;28;20043;-56
2022/09/13 07:22:36;;;;;;;9.00;5.85;;;18.30;99.90;;;;;;4955402;28;20039;-58
2022/09/13 07:25:03;;;;;;;13.07;5.70;;;18.30;99.90;;;;;;4953087;28;20031;-55
2022/09/13 07:27:30;;;;;;;6.70;4.60;;;18.30;99.90;;;;;;4956274;28;20048;-57
2022/09/13 07:29:56;;;;;;;5.65;4.25;;;18.30;99.90;;;;;;4956293;28;20459;-57
2022/09/13 07:32:23;;;;;;;4.97;4.10;;;18.30;99.90;;;;;;4938616;29;20051;-55
2022/09/13 07:34:50;;;;;;;5.65;4.05;;;18.30;99.90;;;;;;4938176;29;20406;-56
2022/09/13 07:37:17;;;;;;;6.32;3.95;;;18.40;99.90;;;;;;4938528;29;20039;-57
2022/09/13 07:39:43;;;;;;;4.97;3.70;;;18.40;99.90;;;;;;4938694;29;20566;-56
2022/09/13 07:42:10;;;;;;;5.38;4.25;;;18.40;99.90;;;;;;4937994;29;20135;-57
2022/09/13 07:44:37;;;;;;;6.55;4.40;;;18.40;99.90;;;;;;4937946;29;20046;-57
2022/09/13 07:47:05;;;;;;;7.25;3.80;;;18.40;99.90;;;;;;4938258;29;20047;-57
2022/09/13 07:49:32;;;;;;;11.10;3.97;;;18.40;99.90;;;;;;4940082;28;20086;-58
2022/09/13 07:51:58;;;;;;;8.13;3.90;;;18.50;99.90;;;;;;4957117;28;20047;-58
2022/09/13 07:54:25;;;;;;;6.38;3.95;;;18.40;99.90;;;;;;4956699;28;20043;-56
2022/09/13 07:56:52;;;;;;;7.43;3.30;;;18.30;99.90;;;;;;4954945;28;20071;-57
2022/09/13 07:59:19;;;;;;;5.63;3.83;;;18.30;99.90;;;;;;4956187;29;20049;-57
2022/09/13 08:01:45;;;;;;;8.07;3.97;;;18.30;99.90;;;;;;4955640;29;20043;-58
2022/09/13 08:04:12;;;;;;;4.70;3.55;;;18.20;99.90;;;;;;4956857;28;20039;-58
2022/09/13 08:06:39;;;;;;;5.45;3.78;;;18.20;99.90;;;;;;4956963;28;20063;-58
2022/09/13 08:09:06;;;;;;;8.50;3.63;;;18.10;99.90;;;;;;4956780;28;20399;-58
2022/09/13 08:11:33;;;;;;;5.13;3.45;;;18.10;99.90;;;;;;4956549;28;20051;-57
2022/09/13 08:13:59;;;;;;;8.25;3.78;;;18.10;99.90;;;;;;4955487;28;20131;-58
2022/09/13 08:16:26;;;;;;;8.73;4.70;;;18.00;99.90;;;;;;4954389;29;20132;-58
2022/09/13 08:18:53;;;;;;;8.32;4.13;;;17.90;99.90;;;;;;4955445;28;20051;-58
2022/09/13 08:21:20;;;;;;;6.45;4.00;;;17.80;99.90;;;;;;4955451;28;20067;-58
2022/09/13 08:23:46;;;;;;;8.02;3.90;;;17.90;99.90;;;;;;4955454;28;20043;-55
2022/09/13 08:26:13;;;;;;;6.45;4.07;;;17.80;99.90;;;;;;4955327;28;20105;-56
2022/09/13 08:28:40;;;;;;;9.25;4.82;;;17.90;99.90;;;;;;4956334;28;20039;-58
2022/09/13 08:31:07;;;;;;;6.07;4.45;;;17.90;99.90;;;;;;4956248;28;20044;-57
2022/09/13 08:33:33;;;;;;;9.18;5.55;;;17.90;99.90;;;;;;4956429;28;20440;-59
2022/09/13 08:36:00;;;;;;;8.07;5.13;;;17.90;99.90;;;;;;4956334;28;20486;-58
2022/09/13 08:38:27;;;;;;;9.60;5.35;;;17.90;99.90;;;;;;4956338;28;20043;-58
2022/09/13 08:40:54;;;;;;;8.27;5.35;;;17.90;99.90;;;;;;4954982;28;20047;-57
2022/09/13 08:43:21;;;;;;;7.97;5.03;;;18.00;99.90;;;;;;4956144;28;20118;-57
2022/09/13 08:45:47;;;;;;;11.48;4.85;;;18.10;99.90;;;;;;4956537;28;20392;-55
2022/09/13 08:48:14;;;;;;;8.95;5.43;;;18.10;99.90;;;;;;4956245;28;20043;-56
2022/09/13 08:50:42;;;;;;;10.20;5.32;;;18.10;99.90;;;;;;4944362;28;20119;-55
2022/09/13 08:53:08;;;;;;;9.55;5.40;;;18.20;99.90;;;;;;4954759;28;20043;-57
2022/09/13 08:55:35;;;;;;;9.05;5.60;;;18.40;99.90;;;;;;4948847;29;20051;-57
2022/09/13 08:58:02;;;;;;;10.88;6.50;;;18.40;99.90;;;;;;4952783;29;20047;-57
2022/09/13 09:00:28;;;;;;;10.32;7.60;;;18.40;99.90;;;;;;4955505;29;20039;-58
2022/09/13 09:02:55;;;;;;;12.13;8.02;;;18.30;99.90;;;;;;4955728;28;20047;-57
2022/09/13 09:05:22;;;;;;;10.70;8.30;;;18.30;99.90;;;;;;4955240;28;20130;-56
2022/09/13 09:07:50;;;;;;;11.30;8.32;;;18.20;99.90;;;;;;4955289;29;20498;-55
2022/09/13 09:10:17;;;;;;;12.73;8.13;;;18.30;99.90;;;;;;4954877;28;20161;-54
2022/09/13 09:12:44;;;;;;;12.77;8.85;;;18.40;99.90;;;;;;4954852;29;20054;-53
2022/09/13 09:15:11;;;;;;;14.13;9.23;;;18.50;99.90;;;;;;4955552;28;20494;-52
2022/09/13 09:17:38;;;;;;;13.32;8.70;;;18.50;99.90;;;;;;4955756;28;20491;-57
2022/09/13 09:20:05;;;;;;;11.82;8.38;;;18.60;99.90;;;;;;4954842;28;20054;-55
2022/09/13 09:22:31;;;;;;;11.43;8.27;;;18.60;99.90;;;;;;4955232;28;20460;-57
2022/09/13 09:24:58;;;;;;;11.40;8.77;;;18.70;99.90;;;;;;4954802;28;20467;-57
2022/09/13 09:27:26;;;;;;;13.52;9.07;;;18.80;99.90;;;;;;4955574;29;20035;-56
2022/09/13 09:29:52;;;;;;;11.27;9.02;;;18.60;99.90;;;;;;4954380;28;20051;-57
2022/09/13 09:32:19;;;;;;;12.07;9.00;;;18.40;99.90;;;;;;4955201;29;20047;-56
2022/09/13 09:34:47;;;;;;;11.52;8.55;;;18.40;99.90;;;;;;4955167;28;20047;-57
2022/09/13 09:37:13;;;;;;;13.40;7.75;;;18.20;99.90;;;;;;4954548;28;20468;-55
2022/09/13 09:39:41;;;;;;;10.18;7.95;;;18.30;99.90;;;;;;4955217;28;20050;-57
2022/09/13 09:42:07;;;;;;;15.55;7.13;;;18.40;99.90;;;;;;4955067;28;20036;-56
2022/09/13 09:44:34;;;;;;;8.82;7.22;;;18.40;99.90;;;;;;4955033;28;20138;-58
2022/09/13 09:47:01;;;;;;;11.40;7.43;;;18.40;99.90;;;;;;4955057;29;20043;-56
2022/09/13 09:52:13;;;;;;;8.38;6.57;;;18.50;99.90;;;;;;4962044;28;20051;-55
2022/09/13 09:54:40;;;;;;;9.52;6.13;;;18.50;99.90;;;;;;4958461;28;20489;-56
2022/09/13 09:57:07;;;;;;;12.30;6.00;;;18.50;99.90;;;;;;4958067;28;20043;-56
2022/09/13 09:59:34;;;;;;;9.30;5.57;;;18.50;99.90;;;;;;4958078;29;20043;-56
2022/09/13 10:02:03;;;;;;;7.78;5.53;;;18.50;99.90;;;;;;4957886;28;20051;-57
2022/09/13 10:04:30;;;;;;;6.20;5.28;;;18.50;99.90;;;;;;4958787;28;20130;-56
2022/09/13 10:06:57;;;;;;;8.48;5.82;;;18.50;99.90;;;;;;4958766;28;20052;-55
2022/09/13 10:09:23;;;;;;;7.57;5.55;;;18.60;99.90;;;;;;4958804;29;20095;-55
2022/09/13 10:11:50;;;;;;;9.25;5.38;;;18.60;99.90;;;;;;4958069;28;20039;-54
2022/09/13 10:14:17;;;;;;;8.45;5.45;;;18.60;99.90;;;;;;4958633;28;20043;-57
2022/09/13 10:16:44;;;;;;;7.68;5.13;;;18.50;99.90;;;;;;4958901;28;20051;-57
2022/09/13 10:19:11;;;;;;;9.70;5.00;;;18.50;99.90;;;;;;4954205;29;20056;-57
2022/09/13 10:21:38;;;;;;;7.38;5.03;;;18.60;99.90;;;;;;4956139;29;20043;-55
2022/09/13 10:24:05;;;;;;;7.63;5.60;;;18.60;99.90;;;;;;4958830;28;20126;-56
2022/09/13 10:26:31;;;;;;;9.30;5.95;;;18.60;99.90;;;;;;4958616;28;20070;-56
2022/09/13 10:28:58;;;;;;;9.88;6.00;;;18.70;99.90;;;;;;4958635;28;20039;-56
2022/09/13 10:31:25;;;;;;;11.77;6.03;;;18.60;99.90;;;;;;4953676;29;20043;-55
2022/09/13 10:33:52;;;;;;;9.88;5.68;;;18.70;99.90;;;;;;4955785;28;20047;-57
2022/09/13 10:36:19;;;;;;;9.23;5.50;;;18.80;99.90;;;;;;4953197;29;20404;-55
2022/09/13 10:39:05;;;;;;;9.10;6.10;;;18.80;99.90;;;;;;4958422;29;20051;-57
2022/09/13 10:41:32;;;;;;;11.40;6.05;;;18.80;99.90;;;;;;4958123;29;20050;-57
2022/09/13 10:43:59;;;;;;;9.23;6.90;;;18.90;99.90;;;;;;4958339;28;20051;-57
2022/09/13 10:46:25;;;;;;;8.63;5.82;;;18.90;99.90;;;;;;4958152;29;20043;-55
2022/09/13 10:48:55;;;;;;;11.27;6.90;;;19.00;99.90;;;;;;4958125;28;20050;-56
2022/09/13 10:51:21;;;;;;;11.32;6.70;;;19.00;99.90;;;;;;4957390;29;20130;-56
2022/09/13 10:53:48;;;;;;;8.05;6.68;;;19.00;99.90;;;;;;4957965;28;20079;-57
2022/09/13 10:56:15;;;;;;;9.40;6.43;;;18.90;99.90;;;;;;4958015;29;20089;-55
2022/09/13 10:58:42;;;;;;;12.48;6.45;;;18.90;99.90;;;;;;4957851;28;20550;-56
2022/09/13 11:01:09;;;;;;;9.25;6.18;;;18.90;99.90;;;;;;4957055;29;20047;-56
2022/09/13 11:03:35;;;;;;;9.70;6.43;;;18.90;99.90;;;;;;4957579;28;20475;-54
2022/09/13 11:06:02;;;;;;;10.40;7.32;;;19.00;99.90;;;;;;4956934;28;20486;-53
2022/09/13 11:08:29;;;;;;;11.20;6.97;;;19.00;99.90;;;;;;4957571;28;20106;-58
2022/09/13 11:10:55;;;;;;;12.15;7.20;;;19.00;99.90;;;;;;4957798;28;20482;-54
2022/09/13 11:13:22;;;;;;;9.55;7.30;;;19.10;99.90;;;;;;4957146;28;20042;-55
2022/09/13 11:15:49;;;;;;;12.02;7.13;;;19.10;99.90;;;;;;4957753;28;20376;-59
2022/09/13 11:18:16;;;;;;;9.05;7.30;;;19.20;99.90;;;;;;4957555;28;20050;-57
2022/09/13 11:20:42;;;;;;;10.20;7.13;;;19.20;99.90;;;;;;4957534;29;20495;-57
2022/09/13 11:23:09;;;;;;;14.30;8.25;;;19.30;99.90;;;;;;4957519;28;20039;-56
2022/09/13 11:25:36;;;;;;;12.52;9.23;;;19.30;99.90;;;;;;4957371;28;20582;-56
2022/09/13 11:28:02;;;;;;;11.00;9.13;;;19.40;99.90;;;;;;4957113;28;20043;-56
2022/09/13 11:30:29;;;;;;;11.13;8.85;;;19.50;99.90;;;;;;4957349;28;20573;-57
2022/09/13 11:32:56;;;;;;;13.50;9.90;;;19.60;99.90;;;;;;4957412;28;20075;-56
2022/09/13 11:35:23;;;;;;;13.48;8.90;;;19.60;99.90;;;;;;4957283;29;20043;-56
2022/09/13 11:37:50;;;;;;;11.40;9.00;;;19.50;99.90;;;;;;4957159;29;20094;-55
2022/09/13 11:40:17;;;;;;;13.02;10.10;;;19.50;99.90;;;;;;4957149;29;20129;-57
2022/09/13 11:42:43;;;;;;;12.65;9.40;;;19.60;99.90;;;;;;4957079;28;20050;-57
2022/09/13 11:45:10;;;;;;;12.48;9.02;;;19.60;99.90;;;;;;4956888;28;20127;-56
2022/09/13 11:47:37;;;;;;;11.65;8.73;;;19.50;99.90;;;;;;4957123;28;20090;-56
2022/09/13 11:50:03;;;;;;;10.45;9.02;;;19.60;99.90;;;;;;4956639;28;20054;-57
2022/09/13 11:52:30;;;;;;;11.70;8.93;;;19.50;99.90;;;;;;4956801;28;20051;-56
2022/09/13 11:54:57;;;;;;;12.77;9.05;;;19.50;99.90;;;;;;4956645;28;20074;-57
2022/09/13 11:57:24;;;;;;;10.10;8.80;;;19.60;99.90;;;;;;4956153;28;20438;-57
2022/09/13 11:59:50;;;;;;;11.05;9.55;;;19.60;99.90;;;;;;4956939;29;20042;-55
2022/09/13 12:02:17;;;;;;;12.30;9.27;;;19.70;99.90;;;;;;4956739;28;20410;-55
2022/09/13 12:04:44;;;;;;;14.10;8.73;;;19.70;99.90;;;;;;4956829;28;20102;-55
2022/09/13 12:07:31;;;;;;;11.02;9.25;;;19.80;99.90;;;;;;4956623;29;20065;-54
2022/09/13 12:09:58;;;;;;;15.02;10.77;;;19.80;99.90;;;;;;4955757;28;20039;-57
2022/09/13 12:12:25;;;;;;;11.68;9.30;;;19.80;99.90;;;;;;4956464;28;20375;-57
2022/09/13 12:14:51;;;;;;;14.02;9.88;;;19.90;99.90;;;;;;4955669;28;20062;-55
2022/09/13 12:17:18;;;;;;;12.20;8.85;;;19.80;99.90;;;;;;4956437;28;20062;-56
2022/09/13 12:19:45;;;;;;;11.98;9.27;;;19.70;99.90;;;;;;4956234;28;20125;-55
2022/09/13 12:22:12;;;;;;;12.57;9.85;;;19.70;99.90;;;;;;4956193;28;20399;-57
2022/09/13 12:24:39;;;;;;;10.95;9.00;;;19.60;99.90;;;;;;4956243;28;20394;-56
2022/09/13 12:27:07;;;;;;;10.32;9.23;;;19.60;99.90;;;;;;4956266;28;20054;-54
2022/09/13 12:29:35;;;;;;;15.88;8.88;;;19.60;99.90;;;;;;4955176;28;20078;-56
2022/09/13 12:32:02;;;;;;;11.35;9.38;;;19.60;99.90;;;;;;4951883;29;20043;-57
2022/09/13 12:34:28;;;;;;;11.57;9.27;;;19.60;99.90;;;;;;4953150;28;20558;-56
2022/09/13 12:36:55;;;;;;;11.57;8.32;;;19.70;99.90;;;;;;4956173;28;20081;-53
2022/09/13 12:39:22;;;;;;;11.85;8.45;;;19.80;99.90;;;;;;4956128;28;20050;-55
2022/09/13 12:41:49;;;;;;;11.93;8.10;;;19.90;99.90;;;;;;4955938;28;20066;-56
2022/09/13 12:44:16;;;;;;;10.15;7.82;;;19.90;99.90;;;;;;4955995;28;20035;-54